Terminal Aerodrome Forecast
Issued by NWS

Home | Current Version | Previous Version | Graphics & Text | Print | Product List | Glossary On
Versions: 1 2 3 4 5 6 7 8 9 10 11 12 13 14 15
000
FTUS43 KFGF 281139
TAFBJI
TAF
KBJI 281139Z 2812/2912 16006KT P6SM SHRA OVC060
     FM281500 15007KT P6SM SHRA OVC015
     FM281900 22007KT P6SM VCTS OVC015CB
     FM290100 30008KT P6SM BKN020
     FM290700 30005KT P6SM SCT010=

USA.gov is the U.S. government's official web portal to all federal, state and local government web resources and services.